Barkald — V7IM6 — position and weather

sailwx.info

Track history (hours):
 
Tides and Currents Weather Stations Pressure Air Temp Water Temp Dewpoint Dewpoint Depression Visibility Wind Speed Wind Dir Waves Ship Positions

Barkald

Last reported at 2015-Mar-06 06:28 UTC. Time now 2015-Mar-06 07:35 UTC.
Position N 39°16' W 076°33'.

Length 189 m; draft 10.2 m.

MMSI: 538002409.

Date/timePositionNaut miles runAvg speedWind from/ knotsBaromVisibWave heightAir tempDewpointWater temp
2015-Mar-06 06:28N 39°16' W 076°33'0 0.0
2015-Mar-06 05:31N 39°16' W 076°33'0 0.0
2015-Mar-06 04:31N 39°16' W 076°33'0 0.0
2015-Mar-06 03:32N 39°16' W 076°33'0 0.0
2015-Mar-06 02:31N 39°16' W 076°33'0 0.0
2015-Mar-06 01:32N 39°16' W 076°33'0 0.0
2015-Mar-06 00:31N 39°16' W 076°33'0 0.0
2015-Mar-05 23:32N 39°16' W 076°33'0 0.0
2015-Mar-05 22:31N 39°16' W 076°33'0 0.0
2015-Mar-05 21:31N 39°16' W 076°33'0 0.0
2015-Mar-05 20:32N 39°16' W 076°33'0 0.0
2015-Mar-05 19:32N 39°16' W 076°33'0 0.0
2015-Mar-05 18:32N 39°16' W 076°33'0 0.0
2015-Mar-05 17:31N 39°16' W 076°33'0 0.0
2015-Mar-05 16:31N 39°16' W 076°33'0 0.0
2015-Mar-05 15:31N 39°16' W 076°33'0 0.0
2015-Mar-05 14:31N 39°16' W 076°33'0 0.0
2015-Mar-05 13:31N 39°16' W 076°33'0 0.0
2015-Mar-05 12:31N 39°16' W 076°33'0 0.0
2015-Mar-05 11:31N 39°16' W 076°33'0 0.0
2015-Mar-05 10:32N 39°16' W 076°33'0 0.0
2015-Mar-05 09:31N 39°16' W 076°33'0 0.0
2015-Mar-05 08:31N 39°16' W 076°33'0 0.0
2015-Mar-05 07:31N 39°16' W 076°33'0 0.0
2015-Mar-05 06:31N 39°16' W 076°33'0 0.0
2015-Mar-05 05:31N 39°16' W 076°33'0 0.0
2015-Mar-05 04:28N 39°16' W 076°33'0 0.0
2015-Mar-05 03:31N 39°16' W 076°33'0 0.2
2015-Mar-05 02:34N 39°15' W 076°33'3 2.7
2015-Mar-05 01:33N 39°13' W 076°32'1010.1
2015-Mar-05 00:32N 39°05' W 076°24'1212.6
2015-Mar-04 23:33N 38°52' W 076°24'215 7.2
2015-Mar-03 17:32N 38°39' W 071°49'1713.2
2015-Mar-03 16:14N 38°49' W 071°31'  
2015-Feb-25 13:18N 40°27' W 070°48'1312.3
2015-Feb-25 12:16N 40°35' W 071°01'912.3
2015-Feb-25 11:33N 40°41' W 071°09'10 9.7
2015-Feb-25 10:33N 40°50' W 071°16'10 9.9
2015-Feb-25 09:33N 40°59' W 071°22'1010.0
2015-Feb-25 08:34N 41°08' W 071°27'1010.0
2015-Feb-25 07:33N 41°17' W 071°30'9 9.5
2015-Feb-25 06:33N 41°16' W 071°42'1312.9
2015-Feb-25 05:33N 41°14' W 071°59'1212.4
2015-Feb-25 04:33N 41°12' W 072°15'1313.5
2015-Feb-25 03:33N 41°08' W 072°33'1414.3
2015-Feb-25 02:34N 41°07' W 072°52'1414.4
2015-Feb-25 01:33N 41°05' W 073°11'3 3.1
2015-Feb-25 00:33N 41°05' W 073°15'0 0.0
2015-Feb-24 23:32N 41°05' W 073°15'0 0.0
2015-Feb-24 22:32N 41°05' W 073°15'0 0.0
2015-Feb-24 21:32N 41°05' W 073°15'0 0.1
2015-Feb-24 20:32N 41°05' W 073°15'0 0.1
2015-Feb-24 19:32N 41°05' W 073°15'0 0.2
2015-Feb-24 18:32N 41°04' W 073°15'0 0.0
2015-Feb-24 17:32N 41°04' W 073°15'0 0.1
2015-Feb-24 15:23N 41°04' W 073°15'0 0.0
2015-Feb-24 14:23N 41°04' W 073°15'0 0.0
2015-Feb-24 13:23N 41°04' W 073°15'  
Track history (hours):
 
Tides and Currents Weather Stations Pressure Air Temp Water Temp Dewpoint Dewpoint Depression Visibility Wind Speed Wind Dir Waves Ship Positions

Barkald

Last reported at 2015-Mar-06 06:28 UTC. Time now 2015-Mar-06 07:35 UTC.
Position N 39°16' W 076°33'.

Length 189 m; draft 10.2 m.

MMSI: 538002409.

Date/timePositionNaut miles runAvg speedWind from/ knotsBaromVisibWave heightAir tempDewpointWater temp
2015-Mar-06 06:28N 39°16' W 076°33'0 0.0
2015-Mar-06 05:31N 39°16' W 076°33'0 0.0
2015-Mar-06 04:31N 39°16' W 076°33'0 0.0
2015-Mar-06 03:32N 39°16' W 076°33'0 0.0
2015-Mar-06 02:31N 39°16' W 076°33'0 0.0
2015-Mar-06 01:32N 39°16' W 076°33'0 0.0
2015-Mar-06 00:31N 39°16' W 076°33'0 0.0
2015-Mar-05 23:32N 39°16' W 076°33'0 0.0
2015-Mar-05 22:31N 39°16' W 076°33'0 0.0
2015-Mar-05 21:31N 39°16' W 076°33'0 0.0
2015-Mar-05 20:32N 39°16' W 076°33'0 0.0
2015-Mar-05 19:32N 39°16' W 076°33'0 0.0
2015-Mar-05 18:32N 39°16' W 076°33'0 0.0
2015-Mar-05 17:31N 39°16' W 076°33'0 0.0
2015-Mar-05 16:31N 39°16' W 076°33'0 0.0
2015-Mar-05 15:31N 39°16' W 076°33'0 0.0
2015-Mar-05 14:31N 39°16' W 076°33'0 0.0
2015-Mar-05 13:31N 39°16' W 076°33'0 0.0
2015-Mar-05 12:31N 39°16' W 076°33'0 0.0
2015-Mar-05 11:31N 39°16' W 076°33'0 0.0
2015-Mar-05 10:32N 39°16' W 076°33'0 0.0
2015-Mar-05 09:31N 39°16' W 076°33'0 0.0
2015-Mar-05 08:31N 39°16' W 076°33'0 0.0
2015-Mar-05 07:31N 39°16' W 076°33'0 0.0
2015-Mar-05 06:31N 39°16' W 076°33'0 0.0
2015-Mar-05 05:31N 39°16' W 076°33'0 0.0
2015-Mar-05 04:28N 39°16' W 076°33'0 0.0
2015-Mar-05 03:31N 39°16' W 076°33'0 0.2
2015-Mar-05 02:34N 39°15' W 076°33'3 2.7
2015-Mar-05 01:33N 39°13' W 076°32'1010.1
2015-Mar-05 00:32N 39°05' W 076°24'1212.6
2015-Mar-04 23:33N 38°52' W 076°24'215 7.2
2015-Mar-03 17:32N 38°39' W 071°49'1713.2
2015-Mar-03 16:14N 38°49' W 071°31'  
2015-Feb-25 13:18N 40°27' W 070°48'1312.3
2015-Feb-25 12:16N 40°35' W 071°01'912.3
2015-Feb-25 11:33N 40°41' W 071°09'10 9.7
2015-Feb-25 10:33N 40°50' W 071°16'10 9.9
2015-Feb-25 09:33N 40°59' W 071°22'1010.0
2015-Feb-25 08:34N 41°08' W 071°27'1010.0
2015-Feb-25 07:33N 41°17' W 071°30'9 9.5
2015-Feb-25 06:33N 41°16' W 071°42'1312.9
2015-Feb-25 05:33N 41°14' W 071°59'1212.4
2015-Feb-25 04:33N 41°12' W 072°15'1313.5
2015-Feb-25 03:33N 41°08' W 072°33'1414.3
2015-Feb-25 02:34N 41°07' W 072°52'1414.4
2015-Feb-25 01:33N 41°05' W 073°11'3 3.1
2015-Feb-25 00:33N 41°05' W 073°15'0 0.0
2015-Feb-24 23:32N 41°05' W 073°15'0 0.0
2015-Feb-24 22:32N 41°05' W 073°15'0 0.0
2015-Feb-24 21:32N 41°05' W 073°15'0 0.1
2015-Feb-24 20:32N 41°05' W 073°15'0 0.1
2015-Feb-24 19:32N 41°05' W 073°15'0 0.2
2015-Feb-24 18:32N 41°04' W 073°15'0 0.0
2015-Feb-24 17:32N 41°04' W 073°15'0 0.1
2015-Feb-24 15:23N 41°04' W 073°15'0 0.0
2015-Feb-24 14:23N 41°04' W 073°15'0 0.0
2015-Feb-24 13:23N 41°04' W 073°15'  

Dump ship's entire track history